sensor_id;sensor_type;location;lat;lon;timestamp;pressure;altitude;pressure_sealevel;temperature;humidity
7433;BME280;32233;49.500;7.764;2023-04-16T00:01:25;98568.41;;;7.09;100.00
7433;BME280;32233;49.500;7.764;2023-04-16T00:03:52;98569.00;;;7.19;100.00
7433;BME280;32233;49.500;7.764;2023-04-16T00:06:18;98578.19;;;7.23;100.00
7433;BME280;32233;49.500;7.764;2023-04-16T00:08:45;98573.97;;;7.14;100.00
7433;BME280;32233;49.500;7.764;2023-04-16T00:11:12;98575.09;;;7.19;100.00
7433;BME280;32233;49.500;7.764;2023-04-16T00:13:38;98575.84;;;7.28;100.00
7433;BME280;32233;49.500;7.764;2023-04-16T00:16:05;98568.63;;;7.22;100.00
7433;BME280;32233;49.500;7.764;2023-04-16T00:18:32;98579.53;;;7.19;100.00
7433;BME280;32233;49.500;7.764;2023-04-16T00:20:58;98577.59;;;7.13;100.00
7433;BME280;32233;49.500;7.764;2023-04-16T00:23:24;98579.59;;;7.11;100.00
7433;BME280;32233;49.500;7.764;2023-04-16T00:25:51;98582.84;;;7.13;100.00
7433;BME280;32233;49.500;7.764;2023-04-16T00:28:19;98579.69;;;7.17;100.00
7433;BME280;32233;49.500;7.764;2023-04-16T00:30:45;98581.84;;;7.14;100.00
7433;BME280;32233;49.500;7.764;2023-04-16T00:33:12;98577.88;;;7.18;100.00
7433;BME280;32233;49.500;7.764;2023-04-16T00:35:38;98579.88;;;7.16;100.00
7433;BME280;32233;49.500;7.764;2023-04-16T00:38:05;98577.78;;;7.11;100.00
7433;BME280;32233;49.500;7.764;2023-04-16T00:40:31;98572.56;;;7.03;100.00
7433;BME280;32233;49.500;7.764;2023-04-16T00:42:58;98569.75;;;7.05;100.00
7433;BME280;32233;49.500;7.764;2023-04-16T00:45:24;98567.66;;;7.00;100.00
7433;BME280;32233;49.500;7.764;2023-04-16T00:47:51;98570.41;;;7.07;100.00
7433;BME280;32233;49.500;7.764;2023-04-16T00:50:18;98572.03;;;7.08;100.00
7433;BME280;32233;49.500;7.764;2023-04-16T00:52:46;98570.28;;;7.00;100.00
7433;BME280;32233;49.500;7.764;2023-04-16T00:55:14;98580.53;;;6.95;100.00
7433;BME280;32233;49.500;7.764;2023-04-16T00:57:43;98575.88;;;6.97;100.00
7433;BME280;32233;49.500;7.764;2023-04-16T01:00:10;98580.84;;;6.92;100.00
7433;BME280;32233;49.500;7.764;2023-04-16T01:02:37;98585.94;;;6.93;100.00
7433;BME280;32233;49.500;7.764;2023-04-16T01:05:04;98577.06;;;6.94;100.00
7433;BME280;32233;49.500;7.764;2023-04-16T01:07:31;98570.28;;;7.00;100.00
7433;BME280;32233;49.500;7.764;2023-04-16T01:09:58;98574.81;;;7.14;100.00
7433;BME280;32233;49.500;7.764;2023-04-16T01:12:24;98575.22;;;7.03;100.00
7433;BME280;32233;49.500;7.764;2023-04-16T01:14:51;98580.41;;;7.11;100.00
7433;BME280;32233;49.500;7.764;2023-04-16T01:17:17;98575.31;;;7.10;100.00
7433;BME280;32233;49.500;7.764;2023-04-16T01:19:44;98582.63;;;7.23;100.00
7433;BME280;32233;49.500;7.764;2023-04-16T01:22:11;98585.75;;;7.18;100.00
7433;BME280;32233;49.500;7.764;2023-04-16T01:24:37;98595.59;;;7.24;100.00
7433;BME280;32233;49.500;7.764;2023-04-16T01:27:08;98595.59;;;7.24;100.00
7433;BME280;32233;49.500;7.764;2023-04-16T01:29:35;98597.00;;;7.12;100.00
7433;BME280;32233;49.500;7.764;2023-04-16T01:32:01;98601.25;;;7.13;100.00
7433;BME280;32233;49.500;7.764;2023-04-16T01:34:31;98589.22;;;6.95;100.00
7433;BME280;32233;49.500;7.764;2023-04-16T01:36:58;98599.28;;;7.15;100.00
7433;BME280;32233;49.500;7.764;2023-04-16T01:39:26;98606.22;;;7.08;100.00
7433;BME280;32233;49.500;7.764;2023-04-16T01:41:52;98610.41;;;7.17;100.00
7433;BME280;32233;49.500;7.764;2023-04-16T01:44:18;98602.06;;;7.13;100.00
7433;BME280;32233;49.500;7.764;2023-04-16T01:46:45;98606.50;;;6.90;100.00
7433;BME280;32233;49.500;7.764;2023-04-16T01:49:12;98611.28;;;6.86;100.00
7433;BME280;32233;49.500;7.764;2023-04-16T01:51:39;98613.69;;;6.96;100.00
7433;BME280;32233;49.500;7.764;2023-04-16T01:54:05;98613.00;;;7.02;100.00
7433;BME280;32233;49.500;7.764;2023-04-16T01:56:31;98605.63;;;6.98;100.00
7433;BME280;32233;49.500;7.764;2023-04-16T01:58:58;98605.16;;;6.94;100.00
7433;BME280;32233;49.500;7.764;2023-04-16T02:01:30;98613.06;;;6.94;100.00
7433;BME280;32233;49.500;7.764;2023-04-16T02:03:57;98606.31;;;6.91;100.00
7433;BME280;32233;49.500;7.764;2023-04-16T02:06:25;98602.16;;;6.97;100.00
7433;BME280;32233;49.500;7.764;2023-04-16T02:08:52;98608.72;;;7.01;100.00
7433;BME280;32233;49.500;7.764;2023-04-16T02:11:19;98607.94;;;6.92;100.00
7433;BME280;32233;49.500;7.764;2023-04-16T02:13:47;98616.50;;;6.94;100.00
7433;BME280;32233;49.500;7.764;2023-04-16T02:16:15;98615.31;;;6.97;100.00
7433;BME280;32233;49.500;7.764;2023-04-16T02:18:49;98620.31;;;6.84;100.00
7433;BME280;32233;49.500;7.764;2023-04-16T02:21:18;98625.06;;;6.88;100.00
7433;BME280;32233;49.500;7.764;2023-04-16T02:23:45;98616.34;;;6.88;100.00
7433;BME280;32233;49.500;7.764;2023-04-16T02:26:20;98622.03;;;7.00;100.00
7433;BME280;32233;49.500;7.764;2023-04-16T02:28:47;98628.28;;;6.99;100.00
7433;BME280;32233;49.500;7.764;2023-04-16T02:31:15;98626.78;;;7.04;100.00
7433;BME280;32233;49.500;7.764;2023-04-16T02:33:45;98621.50;;;7.04;100.00
7433;BME280;32233;49.500;7.764;2023-04-16T02:36:12;98620.56;;;6.97;100.00
7433;BME280;32233;49.500;7.764;2023-04-16T02:38:38;98621.63;;;6.88;100.00
7433;BME280;32233;49.500;7.764;2023-04-16T02:41:05;98614.78;;;7.02;100.00
7433;BME280;32233;49.500;7.764;2023-04-16T02:43:32;98621.84;;;7.01;100.00
7433;BME280;32233;49.500;7.764;2023-04-16T02:46:00;98611.19;;;7.03;100.00
7433;BME280;32233;49.500;7.764;2023-04-16T02:48:26;98610.81;;;7.06;100.00
7433;BME280;32233;49.500;7.764;2023-04-16T02:50:53;98607.31;;;6.90;100.00
7433;BME280;32233;49.500;7.764;2023-04-16T02:53:19;98606.28;;;7.00;100.00
7433;BME280;32233;49.500;7.764;2023-04-16T02:55:53;98611.06;;;6.96;100.00
7433;BME280;32233;49.500;7.764;2023-04-16T02:58:23;98602.53;;;6.94;100.00
7433;BME280;32233;49.500;7.764;2023-04-16T03:00:51;98608.44;;;6.96;100.00
7433;BME280;32233;49.500;7.764;2023-04-16T03:03:18;98610.81;;;7.06;100.00
7433;BME280;32233;49.500;7.764;2023-04-16T03:05:44;98604.56;;;6.84;100.00
7433;BME280;32233;49.500;7.764;2023-04-16T03:08:11;98612.91;;;6.87;100.00
7433;BME280;32233;49.500;7.764;2023-04-16T03:10:38;98606.31;;;6.91;100.00
7433;BME280;32233;49.500;7.764;2023-04-16T03:13:04;98602.84;;;6.99;100.00
7433;BME280;32233;49.500;7.764;2023-04-16T03:15:31;98601.41;;;6.88;100.00
7433;BME280;32233;49.500;7.764;2023-04-16T03:17:58;98606.31;;;6.91;100.00
7433;BME280;32233;49.500;7.764;2023-04-16T03:20:25;98611.75;;;6.90;100.00
7433;BME280;32233;49.500;7.764;2023-04-16T03:22:52;98610.38;;;6.71;100.00
7433;BME280;32233;49.500;7.764;2023-04-16T03:25:18;98608.06;;;6.76;100.00
7433;BME280;32233;49.500;7.764;2023-04-16T03:27:45;98608.53;;;6.80;100.00
7433;BME280;32233;49.500;7.764;2023-04-16T03:30:13;98607.09;;;6.69;100.00
7433;BME280;32233;49.500;7.764;2023-04-16T03:32:40;98615.69;;;6.63;100.00
7433;BME280;32233;49.500;7.764;2023-04-16T03:35:08;98623.03;;;6.67;100.00
7433;BME280;32233;49.500;7.764;2023-04-16T03:37:35;98626.41;;;6.53;100.00
7433;BME280;32233;49.500;7.764;2023-04-16T03:40:02;98632.44;;;6.62;100.00
7433;BME280;32233;49.500;7.764;2023-04-16T03:42:31;98633.88;;;6.64;100.00
7433;BME280;32233;49.500;7.764;2023-04-16T03:44:57;98635.41;;;6.59;100.00
7433;BME280;32233;49.500;7.764;2023-04-16T03:47:25;98647.50;;;6.68;100.00
7433;BME280;32233;49.500;7.764;2023-04-16T03:49:55;98647.78;;;6.73;100.00
7433;BME280;32233;49.500;7.764;2023-04-16T03:52:21;98649.56;;;6.81;100.00
7433;BME280;32233;49.500;7.764;2023-04-16T03:54:48;98641.16;;;6.85;100.00
7433;BME280;32233;49.500;7.764;2023-04-16T03:57:23;98641.16;;;6.85;100.00
7433;BME280;32233;49.500;7.764;2023-04-16T03:59:52;98651.22;;;6.82;100.00
7433;BME280;32233;49.500;7.764;2023-04-16T04:02:20;98650.13;;;6.68;100.00
7433;BME280;32233;49.500;7.764;2023-04-16T04:04:47;98652.06;;;6.74;100.00
7433;BME280;32233;49.500;7.764;2023-04-16T04:07:15;98657.22;;;6.59;100.00
7433;BME280;32233;49.500;7.764;2023-04-16T04:09:41;98660.47;;;6.69;100.00
7433;BME280;32233;49.500;7.764;2023-04-16T04:12:08;98659.59;;;6.77;100.00
7433;BME280;32233;49.500;7.764;2023-04-16T04:14:36;98660.44;;;6.78;100.00
7433;BME280;32233;49.500;7.764;2023-04-16T04:17:06;98659.22;;;6.57;100.00
7433;BME280;32233;49.500;7.764;2023-04-16T04:19:33;98661.97;;;6.64;100.00
7433;BME280;32233;49.500;7.764;2023-04-16T04:22:00;98667.47;;;6.77;100.00
7433;BME280;32233;49.500;7.764;2023-04-16T04:24:27;98672.69;;;6.85;100.00
7433;BME280;32233;49.500;7.764;2023-04-16T04:26:53;98666.84;;;6.75;100.00
7433;BME280;32233;49.500;7.764;2023-04-16T04:29:21;98675.34;;;6.77;100.00
7433;BME280;32233;49.500;7.764;2023-04-16T04:31:47;98673.88;;;6.83;100.00
7433;BME280;32233;49.500;7.764;2023-04-16T04:34:14;98677.34;;;6.75;100.00
7433;BME280;32233;49.500;7.764;2023-04-16T04:36:41;98678.25;;;6.51;100.00
7433;BME280;32233;49.500;7.764;2023-04-16T04:39:08;98676.06;;;6.71;100.00
7433;BME280;32233;49.500;7.764;2023-04-16T04:41:35;98675.69;;;6.82;100.00
7433;BME280;32233;49.500;7.764;2023-04-16T04:44:02;98681.06;;;6.89;100.00
7433;BME280;32233;49.500;7.764;2023-04-16T04:46:29;98688.97;;;6.81;100.00
7433;BME280;32233;49.500;7.764;2023-04-16T04:48:55;98685.97;;;6.92;100.00
7433;BME280;32233;49.500;7.764;2023-04-16T04:51:22;98691.19;;;7.00;100.00
7433;BME280;32233;49.500;7.764;2023-04-16T04:53:48;98697.09;;;7.02;100.00
7433;BME280;32233;49.500;7.764;2023-04-16T04:56:15;98691.34;;;7.07;100.00
7433;BME280;32233;49.500;7.764;2023-04-16T04:58:41;98688.84;;;7.05;100.00
7433;BME280;32233;49.500;7.764;2023-04-16T05:01:08;98691.09;;;7.16;100.00
7433;BME280;32233;49.500;7.764;2023-04-16T05:03:34;98702.84;;;6.98;100.00
7433;BME280;32233;49.500;7.764;2023-04-16T05:06:01;98699.75;;;7.02;100.00
7433;BME280;32233;49.500;7.764;2023-04-16T05:08:27;98704.81;;;7.04;100.00
7433;BME280;32233;49.500;7.764;2023-04-16T05:10:54;98705.63;;;7.04;100.00
7433;BME280;32233;49.500;7.764;2023-04-16T05:13:20;98707.25;;;7.05;100.00
7433;BME280;32233;49.500;7.764;2023-04-16T05:15:47;98708.59;;;7.01;100.00
7433;BME280;32233;49.500;7.764;2023-04-16T05:18:13;98709.81;;;6.90;100.00
7433;BME280;32233;49.500;7.764;2023-04-16T05:20:40;98714.53;;;6.95;100.00
7433;BME280;32233;49.500;7.764;2023-04-16T05:23:06;98717.00;;;6.97;100.00
7433;BME280;32233;49.500;7.764;2023-04-16T05:25:33;98712.91;;;6.94;100.00
7433;BME280;32233;49.500;7.764;2023-04-16T05:28:00;98716.41;;;6.86;100.00
7433;BME280;32233;49.500;7.764;2023-04-16T05:30:26;98719.31;;;6.91;100.00
7433;BME280;32233;49.500;7.764;2023-04-16T05:32:52;98719.13;;;6.93;100.00
7433;BME280;32233;49.500;7.764;2023-04-16T05:35:19;98723.47;;;6.86;100.00
7433;BME280;32233;49.500;7.764;2023-04-16T05:37:45;98720.13;;;6.92;100.00
7433;BME280;32233;49.500;7.764;2023-04-16T05:40:13;98718.13;;;7.02;100.00
7433;BME280;32233;49.500;7.764;2023-04-16T05:42:39;98718.31;;;6.92;100.00
7433;BME280;32233;49.500;7.764;2023-04-16T05:45:06;98723.25;;;6.95;100.00
7433;BME280;32233;49.500;7.764;2023-04-16T05:47:33;98723.75;;;6.91;100.00
7433;BME280;32233;49.500;7.764;2023-04-16T05:49:59;98734.31;;;6.83;100.00
7433;BME280;32233;49.500;7.764;2023-04-16T05:52:26;98733.09;;;6.93;100.00
7433;BME280;32233;49.500;7.764;2023-04-16T05:54:52;98736.56;;;6.94;100.00
7433;BME280;32233;49.500;7.764;2023-04-16T05:57:19;98739.88;;;6.88;100.00
7433;BME280;32233;49.500;7.764;2023-04-16T05:59:45;98745.34;;;7.09;100.00
7433;BME280;32233;49.500;7.764;2023-04-16T06:02:12;98749.47;;;7.12;100.00
7433;BME280;32233;49.500;7.764;2023-04-16T06:04:38;98750.13;;;7.06;100.00
7433;BME280;32233;49.500;7.764;2023-04-16T06:07:05;98744.16;;;7.20;100.00
7433;BME280;32233;49.500;7.764;2023-04-16T06:09:32;98741.91;;;7.09;100.00
7433;BME280;32233;49.500;7.764;2023-04-16T06:11:58;98747.41;;;7.22;100.00
7433;BME280;32233;49.500;7.764;2023-04-16T06:14:25;98745.69;;;7.37;100.00
7433;BME280;32233;49.500;7.764;2023-04-16T06:16:51;98750.81;;;7.39;100.00
7433;BME280;32233;49.500;7.764;2023-04-16T06:19:18;98753.47;;;7.31;100.00
7433;BME280;32233;49.500;7.764;2023-04-16T06:21:44;98748.50;;;7.36;100.00
7433;BME280;32233;49.500;7.764;2023-04-16T06:24:11;98752.69;;;7.22;100.00
7433;BME280;32233;49.500;7.764;2023-04-16T06:26:38;98752.03;;;7.20;100.00
7433;BME280;32233;49.500;7.764;2023-04-16T06:29:05;98753.38;;;7.16;100.00
7433;BME280;32233;49.500;7.764;2023-04-16T06:31:31;98760.13;;;7.18;100.00
7433;BME280;32233;49.500;7.764;2023-04-16T06:33:58;98760.94;;;7.19;100.00
7433;BME280;32233;49.500;7.764;2023-04-16T06:36:24;98763.72;;;7.17;100.00
7433;BME280;32233;49.500;7.764;2023-04-16T06:38:52;98764.31;;;6.97;100.00
7433;BME280;32233;49.500;7.764;2023-04-16T06:41:19;98768.19;;;7.09;100.00
7433;BME280;32233;49.500;7.764;2023-04-16T06:43:47;98774.44;;;7.08;100.00
7433;BME280;32233;49.500;7.764;2023-04-16T06:46:14;98766.88;;;7.13;100.00
7433;BME280;32233;49.500;7.764;2023-04-16T06:48:41;98772.78;;;7.15;100.00
7433;BME280;32233;49.500;7.764;2023-04-16T06:51:07;98769.63;;;7.19;100.00
7433;BME280;32233;49.500;7.764;2023-04-16T06:53:35;98769.50;;;7.13;100.00
7433;BME280;32233;49.500;7.764;2023-04-16T06:56:03;98776.75;;;7.11;100.00
7433;BME280;32233;49.500;7.764;2023-04-16T06:58:29;98772.59;;;7.16;100.00
7433;BME280;32233;49.500;7.764;2023-04-16T07:00:56;98773.72;;;7.22;100.00
7433;BME280;32233;49.500;7.764;2023-04-16T07:03:22;98775.00;;;7.26;100.00
7433;BME280;32233;49.500;7.764;2023-04-16T07:05:49;98784.56;;;7.27;100.00
7433;BME280;32233;49.500;7.764;2023-04-16T07:08:15;98786.84;;;7.22;100.00
7433;BME280;32233;49.500;7.764;2023-04-16T07:10:42;98782.47;;;7.14;100.00
7433;BME280;32233;49.500;7.764;2023-04-16T07:13:08;98788.66;;;7.22;100.00
7433;BME280;32233;49.500;7.764;2023-04-16T07:15:35;98785.56;;;7.18;100.00
7433;BME280;32233;49.500;7.764;2023-04-16T07:18:02;98785.53;;;7.26;100.00
7433;BME280;32233;49.500;7.764;2023-04-16T07:20:28;98782.84;;;7.34;100.00
7433;BME280;32233;49.500;7.764;2023-04-16T07:22:55;98783.34;;;7.38;100.00
7433;BME280;32233;49.500;7.764;2023-04-16T07:25:22;98784.66;;;7.34;100.00
7433;BME280;32233;49.500;7.764;2023-04-16T07:27:48;98789.44;;;7.30;100.00
7433;BME280;32233;49.500;7.764;2023-04-16T07:30:14;98787.28;;;7.34;100.00
7433;BME280;32233;49.500;7.764;2023-04-16T07:32:41;98785.19;;;7.29;100.00
7433;BME280;32233;49.500;7.764;2023-04-16T07:35:08;98784.84;;;7.32;100.00
7433;BME280;32233;49.500;7.764;2023-04-16T07:37:34;98781.13;;;7.27;100.00
7433;BME280;32233;49.500;7.764;2023-04-16T07:40:01;98783.13;;;7.48;100.00
7433;BME280;32233;49.500;7.764;2023-04-16T07:42:27;98799.59;;;7.73;100.00
7433;BME280;32233;49.500;7.764;2023-04-16T07:44:54;98810.88;;;7.81;100.00
7433;BME280;32233;49.500;7.764;2023-04-16T07:47:20;98800.41;;;7.73;98.69
7433;BME280;32233;49.500;7.764;2023-04-16T07:49:48;98798.00;;;7.86;99.28
7433;BME280;32233;49.500;7.764;2023-04-16T07:52:15;98804.41;;;7.92;98.43
7433;BME280;32233;49.500;7.764;2023-04-16T07:54:42;98804.22;;;7.93;97.55
7433;BME280;32233;49.500;7.764;2023-04-16T07:57:08;98811.13;;;8.17;96.70
7433;BME280;32233;49.500;7.764;2023-04-16T07:59:36;98813.97;;;8.08;96.41
7433;BME280;32233;49.500;7.764;2023-04-16T08:02:03;98814.28;;;8.13;96.81
7433;BME280;32233;49.500;7.764;2023-04-16T08:04:30;98803.84;;;8.19;96.27
7433;BME280;32233;49.500;7.764;2023-04-16T08:06:57;98813.84;;;8.24;95.66
7433;BME280;32233;49.500;7.764;2023-04-16T08:09:26;98813.09;;;8.15;95.99
7433;BME280;32233;49.500;7.764;2023-04-16T08:11:53;98814.84;;;8.46;95.27
7433;BME280;32233;49.500;7.764;2023-04-16T08:14:20;98816.72;;;8.75;94.31
7433;BME280;32233;49.500;7.764;2023-04-16T08:16:47;98821.78;;;8.77;93.31
7433;BME280;32233;49.500;7.764;2023-04-16T08:19:13;98817.81;;;8.66;93.23
7433;BME280;32233;49.500;7.764;2023-04-16T08:21:40;98820.44;;;8.66;92.97
7433;BME280;32233;49.500;7.764;2023-04-16T08:24:06;98827.13;;;8.54;93.56
7433;BME280;32233;49.500;7.764;2023-04-16T08:26:33;98827.91;;;8.39;93.61
7433;BME280;32233;49.500;7.764;2023-04-16T08:29:00;98828.66;;;8.25;95.32
7433;BME280;32233;49.500;7.764;2023-04-16T08:31:26;98828.53;;;8.18;94.89
7433;BME280;32233;49.500;7.764;2023-04-16T08:33:53;98835.91;;;8.23;95.81
7433;BME280;32233;49.500;7.764;2023-04-16T08:36:19;98842.72;;;8.40;95.10
7433;BME280;32233;49.500;7.764;2023-04-16T08:38:46;98836.47;;;8.41;95.17
7433;BME280;32233;49.500;7.764;2023-04-16T08:41:13;98834.63;;;8.19;95.48
7433;BME280;32233;49.500;7.764;2023-04-16T08:43:44;98834.69;;;8.34;94.81
7433;BME280;32233;49.500;7.764;2023-04-16T08:46:11;98837.63;;;8.39;94.24
7433;BME280;32233;49.500;7.764;2023-04-16T08:48:40;98840.38;;;8.23;94.56
7433;BME280;32233;49.500;7.764;2023-04-16T08:51:09;98830.56;;;8.16;94.39
7433;BME280;32233;49.500;7.764;2023-04-16T08:53:47;98844.28;;;8.27;94.10
7433;BME280;32233;49.500;7.764;2023-04-16T08:56:19;98844.34;;;8.18;94.72
7433;BME280;32233;49.500;7.764;2023-04-16T08:58:47;98839.63;;;8.14;95.63
7433;BME280;32233;49.500;7.764;2023-04-16T09:01:15;98850.91;;;8.23;94.82
7433;BME280;32233;49.500;7.764;2023-04-16T09:03:46;98849.84;;;8.32;94.84
7433;BME280;32233;49.500;7.764;2023-04-16T09:06:13;98849.69;;;8.33;95.43
7433;BME280;32233;49.500;7.764;2023-04-16T09:08:43;98851.31;;;8.34;95.02
7433;BME280;32233;49.500;7.764;2023-04-16T09:11:10;98851.91;;;8.22;96.18
7433;BME280;32233;49.500;7.764;2023-04-16T09:13:37;98857.31;;;8.20;96.83
7433;BME280;32233;49.500;7.764;2023-04-16T09:16:06;98849.44;;;8.20;97.31
7433;BME280;32233;49.500;7.764;2023-04-16T09:18:33;98849.63;;;8.18;96.92
7433;BME280;32233;49.500;7.764;2023-04-16T09:20:59;98858.84;;;8.14;97.73
7433;BME280;32233;49.500;7.764;2023-04-16T09:23:26;98859.28;;;8.26;97.34
7433;BME280;32233;49.500;7.764;2023-04-16T09:25:52;98856.28;;;8.29;97.05
7433;BME280;32233;49.500;7.764;2023-04-16T09:28:41;98866.34;;;8.26;97.37
7433;BME280;32233;49.500;7.764;2023-04-16T09:31:12;98861.72;;;8.05;98.37
7433;BME280;32233;49.500;7.764;2023-04-16T09:33:40;98872.06;;;8.06;99.05
7433;BME280;32233;49.500;7.764;2023-04-16T09:36:06;98867.84;;;8.20;100.00
7433;BME280;32233;49.500;7.764;2023-04-16T09:38:50;98872.69;;;8.39;98.81
7433;BME280;32233;49.500;7.764;2023-04-16T09:41:17;98874.19;;;8.34;99.45
7433;BME280;32233;49.500;7.764;2023-04-16T09:43:58;98869.47;;;8.29;99.54
7433;BME280;32233;49.500;7.764;2023-04-16T09:48:55;98882.63;;;8.29;100.00
7433;BME280;32233;49.500;7.764;2023-04-16T09:51:22;98878.88;;;8.24;99.84
7433;BME280;32233;49.500;7.764;2023-04-16T09:53:55;98887.28;;;8.19;100.00
7433;BME280;32233;49.500;7.764;2023-04-16T09:56:23;98888.28;;;8.18;100.00
7433;BME280;32233;49.500;7.764;2023-04-16T09:58:58;98892.50;;;8.27;100.00
7433;BME280;32233;49.500;7.764;2023-04-16T10:01:25;98890.50;;;8.37;100.00
7433;BME280;32233;49.500;7.764;2023-04-16T10:03:53;98886.69;;;8.40;100.00
7433;BME280;32233;49.500;7.764;2023-04-16T10:06:22;98889.31;;;8.40;100.00
7433;BME280;32233;49.500;7.764;2023-04-16T10:08:49;98894.53;;;8.48;100.00
7433;BME280;32233;49.500;7.764;2023-04-16T10:11:17;98895.81;;;8.52;100.00
7433;BME280;32233;49.500;7.764;2023-04-16T10:13:44;98890.31;;;8.62;100.00
7433;BME280;32233;49.500;7.764;2023-04-16T10:16:11;98889.63;;;8.45;100.00
7433;BME280;32233;49.500;7.764;2023-04-16T10:18:39;98903.09;;;8.50;100.00
7433;BME280;32233;49.500;7.764;2023-04-16T10:21:07;98896.00;;;8.51;100.00
7433;BME280;32233;49.500;7.764;2023-04-16T10:23:40;98897.69;;;8.43;100.00
7433;BME280;32233;49.500;7.764;2023-04-16T10:26:08;98899.78;;;8.25;100.00
7433;BME280;32233;49.500;7.764;2023-04-16T10:28:34;98904.84;;;8.27;100.00
7433;BME280;32233;49.500;7.764;2023-04-16T10:31:03;98904.00;;;8.03;100.00
7433;BME280;32233;49.500;7.764;2023-04-16T10:33:32;98906.38;;;8.21;100.00
7433;BME280;32233;49.500;7.764;2023-04-16T10:36:10;98907.06;;;8.15;100.00
7433;BME280;32233;49.500;7.764;2023-04-16T10:38:39;98910.72;;;8.14;100.00
7433;BME280;32233;49.500;7.764;2023-04-16T10:41:06;98912.69;;;8.12;100.00
7433;BME280;32233;49.500;7.764;2023-04-16T10:43:47;98906.91;;;8.16;100.00
7433;BME280;32233;49.500;7.764;2023-04-16T10:48:43;98908.22;;;8.21;100.00
7433;BME280;32233;49.500;7.764;2023-04-16T10:51:27;98903.25;;;8.49;100.00
7433;BME280;32233;49.500;7.764;2023-04-16T10:54:41;98906.88;;;8.48;100.00
7433;BME280;32233;49.500;7.764;2023-04-16T10:56:43;98912.50;;;8.44;100.00
7433;BME280;32233;49.500;7.764;2023-04-16T10:59:10;98899.50;;;8.43;100.00
7433;BME280;32233;49.500;7.764;2023-04-16T11:01:42;98908.75;;;8.39;100.00
7433;BME280;32233;49.500;7.764;2023-04-16T11:09:58;98895.47;;;8.24;100.00
7433;BME280;32233;49.500;7.764;2023-04-16T11:14:59;98901.22;;;8.28;100.00
7433;BME280;32233;49.500;7.764;2023-04-16T11:17:42;98905.72;;;8.19;100.00
7433;BME280;32233;49.500;7.764;2023-04-16T11:20:15;98902.63;;;8.15;100.00
7433;BME280;32233;49.500;7.764;2023-04-16T11:22:46;98908.41;;;8.11;100.00
7433;BME280;32233;49.500;7.764;2023-04-16T11:25:18;98902.16;;;8.12;100.00
7433;BME280;32233;49.500;7.764;2023-04-16T11:27:45;98907.44;;;8.35;100.00
7433;BME280;32233;49.500;7.764;2023-04-16T11:30:11;98905.06;;;8.48;100.00
7433;BME280;32233;49.500;7.764;2023-04-16T11:32:39;98903.72;;;8.52;100.00
7433;BME280;32233;49.500;7.764;2023-04-16T11:35:16;98908.13;;;8.37;100.00
7433;BME280;32233;49.500;7.764;2023-04-16T11:37:44;98906.13;;;8.62;100.00
7433;BME280;32233;49.500;7.764;2023-04-16T11:40:11;98904.53;;;8.53;100.00
7433;BME280;32233;49.500;7.764;2023-04-16T11:42:39;98906.00;;;8.55;100.00
7433;BME280;32233;49.500;7.764;2023-04-16T11:45:08;98905.66;;;8.58;100.00
7433;BME280;32233;49.500;7.764;2023-04-16T11:47:45;98912.56;;;8.59;100.00
7433;BME280;32233;49.500;7.764;2023-04-16T11:50:30;98909.75;;;8.38;100.00
7433;BME280;32233;49.500;7.764;2023-04-16T11:53:03;98907.16;;;8.53;100.00
7433;BME280;32233;49.500;7.764;2023-04-16T11:55:30;98907.53;;;8.50;100.00
7433;BME280;32233;49.500;7.764;2023-04-16T11:57:56;98910.03;;;8.43;100.00
7433;BME280;32233;49.500;7.764;2023-04-16T12:00:23;98920.88;;;8.48;100.00
7433;BME280;32233;49.500;7.764;2023-04-16T12:02:53;98912.63;;;8.51;100.00
7433;BME280;32233;49.500;7.764;2023-04-16T12:05:35;98921.53;;;8.50;100.00
7433;BME280;32233;49.500;7.764;2023-04-16T12:08:05;98914.50;;;8.65;100.00
7433;BME280;32233;49.500;7.764;2023-04-16T12:10:34;98916.66;;;8.62;100.00
7433;BME280;32233;49.500;7.764;2023-04-16T12:13:14;98918.41;;;8.70;100.00
7433;BME280;32233;49.500;7.764;2023-04-16T12:15:52;98921.47;;;8.73;100.00
7433;BME280;32233;49.500;7.764;2023-04-16T12:18:22;98922.41;;;8.80;100.00
7433;BME280;32233;49.500;7.764;2023-04-16T12:20:49;98918.34;;;8.78;100.00
7433;BME280;32233;49.500;7.764;2023-04-16T12:23:26;98918.69;;;8.75;100.00
7433;BME280;32233;49.500;7.764;2023-04-16T12:25:54;98919.38;;;8.68;100.00
7433;BME280;32233;49.500;7.764;2023-04-16T12:28:35;98920.09;;;8.62;100.00
7433;BME280;32233;49.500;7.764;2023-04-16T12:31:04;98915.06;;;8.76;100.00
7433;BME280;32233;49.500;7.764;2023-04-16T12:33:31;98919.78;;;8.80;100.00
7433;BME280;32233;49.500;7.764;2023-04-16T12:35:57;98920.13;;;8.77;100.00
7433;BME280;32233;49.500;7.764;2023-04-16T12:38:25;98925.06;;;8.80;100.00
7433;BME280;32233;49.500;7.764;2023-04-16T12:40:52;98934.91;;;8.86;100.00
7433;BME280;32233;49.500;7.764;2023-04-16T12:43:22;98930.22;;;9.11;100.00
7433;BME280;32233;49.500;7.764;2023-04-16T12:45:49;98926.38;;;9.14;100.00
7433;BME280;32233;49.500;7.764;2023-04-16T12:48:16;98929.69;;;9.31;100.00
7433;BME280;32233;49.500;7.764;2023-04-16T12:50:42;98935.06;;;9.23;100.00
7433;BME280;32233;49.500;7.764;2023-04-16T12:53:10;98928.69;;;9.32;100.00
7433;BME280;32233;49.500;7.764;2023-04-16T12:55:37;98925.06;;;9.48;100.00
7433;BME280;32233;49.500;7.764;2023-04-16T12:58:03;98928.78;;;9.24;100.00
7433;BME280;32233;49.500;7.764;2023-04-16T13:00:30;98930.41;;;9.25;100.00
7433;BME280;32233;49.500;7.764;2023-04-16T13:02:56;98924.31;;;9.24;100.00
7433;BME280;32233;49.500;7.764;2023-04-16T13:05:23;98926.84;;;9.17;100.00
7433;BME280;32233;49.500;7.764;2023-04-16T13:07:50;98930.31;;;9.03;100.00
7433;BME280;32233;49.500;7.764;2023-04-16T13:10:16;98926.94;;;9.09;100.00
7433;BME280;32233;49.500;7.764;2023-04-16T13:12:43;98933.03;;;9.10;100.00
7433;BME280;32233;49.500;7.764;2023-04-16T13:15:11;98930.38;;;9.10;100.00
7433;BME280;32233;49.500;7.764;2023-04-16T13:17:38;98927.59;;;9.11;100.00
7433;BME280;32233;49.500;7.764;2023-04-16T13:20:05;98931.13;;;9.33;100.00
7433;BME280;32233;49.500;7.764;2023-04-16T13:22:32;98923.97;;;9.27;99.45
7433;BME280;32233;49.500;7.764;2023-04-16T13:24:59;98935.16;;;9.44;99.55
7433;BME280;32233;49.500;7.764;2023-04-16T13:27:25;98928.59;;;9.55;98.68
7433;BME280;32233;49.500;7.764;2023-04-16T13:29:52;98929.25;;;9.72;98.41